createdAt,value
2023-05-11T00:02:09.805Z,2.40
2023-05-11T00:05:13.277Z,2.22
2023-05-11T00:08:17.498Z,2.20
2023-05-11T00:11:21.145Z,2.30
2023-05-11T00:14:26.940Z,2.20
2023-05-11T00:17:30.588Z,2.40
2023-05-11T00:20:34.474Z,2.30
2023-05-11T00:23:38.153Z,2.63
2023-05-11T00:26:41.926Z,2.40
2023-05-11T00:29:46.881Z,2.35
2023-05-11T00:32:52.655Z,2.47
2023-05-11T00:35:56.116Z,2.30
2023-05-11T00:39:00.004Z,2.30
2023-05-11T00:42:03.827Z,2.53
2023-05-11T00:45:11.380Z,2.40
2023-05-11T00:48:16.230Z,2.40
2023-05-11T00:51:21.032Z,2.40
2023-05-11T00:54:24.664Z,2.42
2023-05-11T00:57:30.472Z,2.83
2023-05-11T01:00:36.784Z,2.58
2023-05-11T01:03:41.373Z,2.77
2023-05-11T01:06:56.784Z,2.63
2023-05-11T01:10:13.099Z,2.50
2023-05-11T01:13:28.505Z,2.97
2023-05-11T01:16:43.089Z,2.50
2023-05-11T01:19:57.748Z,2.28
2023-05-11T01:23:42.718Z,2.65
2023-05-11T01:27:04.469Z,2.17
2023-05-11T01:30:34.682Z,2.53
2023-05-11T01:33:45.569Z,2.50
2023-05-11T01:36:57.930Z,2.00
2023-05-11T01:40:11.039Z,2.35
2023-05-11T01:43:22.267Z,2.67
2023-05-11T01:46:32.062Z,2.30
2023-05-11T01:49:42.078Z,2.60
2023-05-11T01:52:49.942Z,2.60
2023-05-11T01:55:56.635Z,2.40
2023-05-11T01:59:02.114Z,2.53
2023-05-11T02:02:10.856Z,2.97
2023-05-11T02:05:22.231Z,2.67
2023-05-11T02:08:28.268Z,2.50
2023-05-11T02:11:35.666Z,2.60
2023-05-11T02:14:41.317Z,2.40
2023-05-11T02:17:47.035Z,2.10
2023-05-11T02:20:52.990Z,2.55
2023-05-11T02:23:58.394Z,3.05
2023-05-11T02:27:02.451Z,2.85
2023-05-11T02:30:09.305Z,2.60
2023-05-11T02:33:23.044Z,2.78
2023-05-11T02:36:31.740Z,2.80
2023-05-11T02:39:39.991Z,2.53
2023-05-11T02:42:47.045Z,2.50
2023-05-11T02:45:55.332Z,2.37
2023-05-11T02:49:06.081Z,2.67
2023-05-11T02:52:12.040Z,2.78
2023-05-11T02:55:23.501Z,2.92
2023-05-11T02:58:27.873Z,2.78
2023-05-11T03:01:44.302Z,2.95
2023-05-11T03:04:50.228Z,2.50
2023-05-11T03:07:58.636Z,2.50
2023-05-11T03:11:04.032Z,2.30
2023-05-11T03:14:08.377Z,2.33
2023-05-11T03:17:16.211Z,2.70
2023-05-11T03:20:24.872Z,2.80
2023-05-11T03:23:31.248Z,2.95
2023-05-11T03:26:37.017Z,2.15
2023-05-11T03:29:45.296Z,2.88
2023-05-11T03:32:50.111Z,2.95
2023-05-11T03:35:58.201Z,2.40
2023-05-11T03:39:04.404Z,3.55
2023-05-11T03:42:13.488Z,2.67
2023-05-11T03:45:22.673Z,2.70
2023-05-11T03:48:26.911Z,3.00
2023-05-11T03:51:32.853Z,3.10
2023-05-11T03:54:37.988Z,2.97
2023-05-11T03:57:41.871Z,2.60
2023-05-11T04:00:46.152Z,3.00
2023-05-11T04:03:50.825Z,3.00
2023-05-11T04:06:56.218Z,3.05
2023-05-11T04:09:59.684Z,2.50
2023-05-11T04:13:04.071Z,2.63
2023-05-11T04:16:08.751Z,3.20
2023-05-11T04:19:12.665Z,2.85
2023-05-11T04:22:17.491Z,2.63
2023-05-11T04:25:21.280Z,2.65
2023-05-11T04:28:28.012Z,3.08
2023-05-11T04:31:32.352Z,3.00
2023-05-11T04:34:36.615Z,3.00
2023-05-11T04:37:43.323Z,2.83
2023-05-11T04:40:48.193Z,2.92
2023-05-11T04:43:53.065Z,2.80
2023-05-11T04:46:57.829Z,3.20
2023-05-11T04:50:01.961Z,2.55
2023-05-11T04:53:08.757Z,3.03
2023-05-11T04:56:13.138Z,2.40
2023-05-11T04:59:16.975Z,3.10
2023-05-11T05:02:21.551Z,3.13
2023-05-11T05:05:25.272Z,2.90
2023-05-11T05:08:30.312Z,2.50
2023-05-11T05:11:33.802Z,2.80
2023-05-11T05:14:38.138Z,2.93
2023-05-11T05:17:41.911Z,2.90
2023-05-11T05:20:45.749Z,3.10
2023-05-11T05:23:50.572Z,2.80
2023-05-11T05:26:54.300Z,2.85
2023-05-11T05:29:57.889Z,2.80
2023-05-11T05:33:03.244Z,3.03
2023-05-11T05:36:08.768Z,2.75
2023-05-11T05:39:13.912Z,2.83
2023-05-11T05:42:17.518Z,3.00
2023-05-11T05:45:22.133Z,3.00
2023-05-11T05:48:26.644Z,2.80
2023-05-11T05:51:30.691Z,2.83
2023-05-11T05:54:35.765Z,2.60
2023-05-11T05:57:39.679Z,2.80
2023-05-11T06:00:47.369Z,4.03
2023-05-11T06:03:52.190Z,2.92
2023-05-11T06:06:57.936Z,2.53
2023-05-11T06:10:03.679Z,2.50
2023-05-11T06:13:09.418Z,2.83
2023-05-11T06:16:14.973Z,2.50
2023-05-11T06:19:18.945Z,3.30
2023-05-11T06:22:23.309Z,3.63
2023-05-11T06:25:28.908Z,3.03
2023-05-11T06:28:33.089Z,2.40
2023-05-11T06:31:40.630Z,2.50
2023-05-11T06:34:45.724Z,2.83
2023-05-11T06:37:50.524Z,2.50
2023-05-11T06:40:56.379Z,3.13
2023-05-11T06:44:00.740Z,2.85
2023-05-11T06:47:13.007Z,3.07
2023-05-11T06:50:17.257Z,2.92
2023-05-11T06:53:22.318Z,2.88
2023-05-11T06:56:27.789Z,2.80
2023-05-11T06:59:32.430Z,3.30
2023-05-11T07:02:36.193Z,2.53
2023-05-11T07:05:40.447Z,2.45
2023-05-11T07:08:44.091Z,2.42
2023-05-11T07:11:50.043Z,2.80
2023-05-11T07:14:53.604Z,2.72
2023-05-11T07:17:57.362Z,2.95
2023-05-11T07:21:00.879Z,4.20
2023-05-11T07:24:05.137Z,3.97
2023-05-11T07:27:10.230Z,3.23
2023-05-11T07:30:15.301Z,2.83
2023-05-11T07:33:19.289Z,3.00
2023-05-11T07:36:22.973Z,3.10
2023-05-11T07:39:26.351Z,3.55
2023-05-11T07:42:31.802Z,2.88
2023-05-11T07:45:35.156Z,2.70
2023-05-11T07:48:38.825Z,2.73
2023-05-11T07:51:42.368Z,3.33
2023-05-11T07:54:46.474Z,2.92
2023-05-11T07:57:51.247Z,2.37
2023-05-11T08:00:54.935Z,2.70
2023-05-11T08:03:58.313Z,3.35
2023-05-11T08:07:02.326Z,2.83
2023-05-11T08:10:07.644Z,2.53
2023-05-11T08:13:12.648Z,2.85
2023-05-11T08:16:16.196Z,2.85
2023-05-11T08:19:19.904Z,3.63
2023-05-11T08:22:23.606Z,3.90
2023-05-11T08:25:27.472Z,2.90
2023-05-11T08:28:32.704Z,2.53
2023-05-11T08:31:36.597Z,2.60
2023-05-11T08:34:40.482Z,2.70
2023-05-11T08:37:44.407Z,2.60
2023-05-11T08:40:48.643Z,2.70
2023-05-11T08:43:56.430Z,2.90
2023-05-11T08:47:18.914Z,3.65
2023-05-11T08:50:25.402Z,2.67
2023-05-11T08:53:29.339Z,3.40
2023-05-11T08:56:35.443Z,1.92
2023-05-11T08:59:42.743Z,2.40
2023-05-11T09:02:48.515Z,3.78
2023-05-11T09:05:53.326Z,6.03
2023-05-11T09:08:57.183Z,2.28
2023-05-11T09:12:01.906Z,2.00
2023-05-11T09:15:08.816Z,2.00
2023-05-11T09:18:13.425Z,2.35
2023-05-11T09:21:18.410Z,2.20
2023-05-11T09:24:22.676Z,2.20
2023-05-11T09:27:26.699Z,1.92
2023-05-11T09:30:31.878Z,1.67
2023-05-11T09:33:35.555Z,1.88
2023-05-11T09:36:39.265Z,2.00
2023-05-11T09:39:59.365Z,1.55
2023-05-11T09:43:20.482Z,1.70
2023-05-11T09:46:25.616Z,2.08
2023-05-11T09:49:30.782Z,1.60
2023-05-11T09:52:34.480Z,1.33
2023-05-11T09:55:38.108Z,1.80
2023-05-11T09:58:54.362Z,2.58
2023-05-11T10:02:17.511Z,2.90
2023-05-11T10:05:21.336Z,1.80
2023-05-11T10:08:30.504Z,1.40
2023-05-11T10:11:34.535Z,1.50
2023-05-11T10:14:38.644Z,1.42
2023-05-11T10:17:46.195Z,2.85
2023-05-11T10:20:50.536Z,1.67
2023-05-11T10:23:54.589Z,1.40
2023-05-11T10:26:59.197Z,1.38
2023-05-11T10:30:04.980Z,1.40
2023-05-11T10:33:11.761Z,1.63
2023-05-11T10:36:19.232Z,1.50
2023-05-11T10:39:23.268Z,1.88
2023-05-11T10:42:53.356Z,1.58
2023-05-11T10:46:15.175Z,2.05
2023-05-11T10:49:47.931Z,1.30
2023-05-11T10:53:20.922Z,1.85
2023-05-11T10:56:56.272Z,1.70
2023-05-11T11:00:53.362Z,1.17
2023-05-11T11:03:59.675Z,1.98
2023-05-11T11:07:08.705Z,1.50
2023-05-11T11:10:13.060Z,1.40
2023-05-11T11:13:18.596Z,1.20
2023-05-11T11:16:25.005Z,1.20
2023-05-11T11:19:39.572Z,1.30
2023-05-11T11:22:49.314Z,1.30
2023-05-11T11:25:55.090Z,1.33
2023-05-11T11:29:12.792Z,1.27
2023-05-11T11:32:29.557Z,1.35
2023-05-11T11:35:49.748Z,1.35
2023-05-11T11:39:01.350Z,1.30
2023-05-11T11:42:08.160Z,1.75
2023-05-11T11:45:34.593Z,1.10
2023-05-11T11:48:41.431Z,1.33
2023-05-11T11:51:45.523Z,1.27
2023-05-11T11:54:50.555Z,1.20
2023-05-11T11:57:53.991Z,1.52
2023-05-11T12:00:59.639Z,1.07
2023-05-11T12:04:42.013Z,1.00
2023-05-11T12:07:47.699Z,1.10
2023-05-11T12:10:56.719Z,2.45
2023-05-11T12:14:01.990Z,1.00
2023-05-11T12:17:15.976Z,1.30
2023-05-11T12:20:21.735Z,1.10
2023-05-11T12:23:25.217Z,1.10
2023-05-11T12:26:32.539Z,1.00
2023-05-11T12:29:36.092Z,0.85
2023-05-11T12:32:40.529Z,0.90
2023-05-11T12:35:45.934Z,1.08
2023-05-11T12:38:50.986Z,0.80
2023-05-11T12:41:57.438Z,1.00
2023-05-11T12:45:01.435Z,1.13
2023-05-11T12:48:08.004Z,0.90
2023-05-11T12:51:11.865Z,0.77
2023-05-11T12:54:31.251Z,0.90
2023-05-11T12:57:36.430Z,0.88
2023-05-11T13:00:54.410Z,1.10
2023-05-11T13:03:58.394Z,1.10
2023-05-11T13:07:02.141Z,1.58
2023-05-11T13:10:07.036Z,0.93
2023-05-11T13:13:12.028Z,0.93
2023-05-11T13:16:26.418Z,0.82
2023-05-11T13:19:32.118Z,1.00
2023-05-11T13:22:36.128Z,0.80
2023-05-11T13:25:54.470Z,0.80
2023-05-11T13:29:10.057Z,0.80
2023-05-11T13:32:14.886Z,0.77
2023-05-11T13:35:19.196Z,1.03
2023-05-11T13:38:22.750Z,0.82
2023-05-11T13:41:26.404Z,1.55
2023-05-11T13:44:31.188Z,0.95
2023-05-11T13:47:35.920Z,1.00
2023-05-11T13:50:39.744Z,0.80
2023-05-11T13:53:44.219Z,0.90
2023-05-11T13:56:47.664Z,0.82
2023-05-11T13:59:52.740Z,0.80
2023-05-11T14:02:58.113Z,1.17
2023-05-11T14:06:02.067Z,0.80
2023-05-11T14:09:05.708Z,1.00
2023-05-11T14:12:09.817Z,0.90
2023-05-11T14:15:14.699Z,1.30
2023-05-11T14:18:18.515Z,1.08
2023-05-11T14:21:22.423Z,1.10
2023-05-11T14:24:26.165Z,1.20
2023-05-11T14:27:30.078Z,0.95
2023-05-11T14:30:35.206Z,1.10
2023-05-11T14:33:40.109Z,1.50
2023-05-11T14:36:43.853Z,1.23
2023-05-11T14:39:47.327Z,1.27
2023-05-11T14:42:50.932Z,1.70
2023-05-11T14:45:56.156Z,1.33
2023-05-11T14:49:00.059Z,3.05
2023-05-11T14:52:03.703Z,2.33
2023-05-11T14:55:09.031Z,1.65
2023-05-11T14:58:12.453Z,1.33
2023-05-11T15:01:18.300Z,2.10
2023-05-11T15:04:22.364Z,1.48
2023-05-11T15:07:26.853Z,2.80
2023-05-11T15:10:30.588Z,2.08
2023-05-11T15:13:34.262Z,1.80
2023-05-11T15:16:39.592Z,1.45
2023-05-11T15:19:43.348Z,1.30
2023-05-11T15:22:46.931Z,1.47
2023-05-11T15:25:50.663Z,1.58
2023-05-11T15:28:54.097Z,1.70
2023-05-11T15:31:59.721Z,2.03
2023-05-11T15:35:03.161Z,1.60
2023-05-11T15:38:07.122Z,1.80
2023-05-11T15:41:10.694Z,1.67
2023-05-11T15:44:14.491Z,1.60
2023-05-11T15:47:19.271Z,1.50
2023-05-11T15:50:23.171Z,4.15
2023-05-11T15:53:26.828Z,1.47
2023-05-11T15:56:30.612Z,1.42
2023-05-11T15:59:34.087Z,1.30
2023-05-11T16:02:39.479Z,1.50
2023-05-11T16:05:43.218Z,1.40
2023-05-11T16:08:46.875Z,1.17
2023-05-11T16:11:51.312Z,1.30
2023-05-11T16:15:02.291Z,1.52
2023-05-11T16:18:07.708Z,2.22
2023-05-11T16:21:11.394Z,1.33
2023-05-11T16:24:15.201Z,1.43
2023-05-11T16:27:19.030Z,1.50
2023-05-11T16:30:25.298Z,1.90
2023-05-11T16:33:31.106Z,1.45
2023-05-11T16:36:34.759Z,1.27
2023-05-11T16:39:38.472Z,1.20
2023-05-11T16:42:42.404Z,1.20
2023-05-11T16:45:46.153Z,1.50
2023-05-11T16:48:51.065Z,1.40
2023-05-11T16:51:54.678Z,1.40
2023-05-11T16:54:59.263Z,1.70
2023-05-11T16:58:03.190Z,1.40
2023-05-11T17:01:07.435Z,2.00
2023-05-11T17:04:12.733Z,2.70
2023-05-11T17:07:16.612Z,1.63
2023-05-11T17:10:20.527Z,1.53
2023-05-11T17:13:24.073Z,1.40
2023-05-11T17:16:28.176Z,1.20
2023-05-11T17:19:33.247Z,1.45
2023-05-11T17:22:37.394Z,1.70
2023-05-11T17:25:42.690Z,1.50
2023-05-11T17:28:47.883Z,1.40
2023-05-11T17:31:52.570Z,1.73
2023-05-11T17:34:58.123Z,1.55
2023-05-11T17:38:02.683Z,1.40
2023-05-11T17:41:06.782Z,1.40
2023-05-11T17:44:10.349Z,1.70
2023-05-11T17:47:14.002Z,1.58
2023-05-11T17:50:18.988Z,1.92
2023-05-11T17:53:23.007Z,1.92
2023-05-11T17:56:26.417Z,1.60
2023-05-11T17:59:30.197Z,1.67
2023-05-11T18:02:33.862Z,1.90
2023-05-11T18:05:48.563Z,1.60
2023-05-11T18:08:53.069Z,1.90
2023-05-11T18:11:56.891Z,1.87
2023-05-11T18:15:00.600Z,1.90
2023-05-11T18:18:04.350Z,1.90
2023-05-11T18:21:10.753Z,2.10
2023-05-11T18:24:15.136Z,1.80
2023-05-11T18:27:18.816Z,2.05
2023-05-11T18:30:24.827Z,2.00
2023-05-11T18:33:28.244Z,2.05
2023-05-11T18:36:33.489Z,2.20
2023-05-11T18:39:37.155Z,1.88
2023-05-11T18:42:40.552Z,2.03
2023-05-11T18:45:45.851Z,2.90
2023-05-11T18:48:52.787Z,2.60
2023-05-11T18:51:58.252Z,3.00
2023-05-11T18:55:01.976Z,2.83
2023-05-11T18:58:05.907Z,2.67
2023-05-11T19:01:09.539Z,2.92
2023-05-11T19:04:13.831Z,2.53
2023-05-11T19:07:20.310Z,2.93
2023-05-11T19:10:24.546Z,2.67
2023-05-11T19:13:28.020Z,3.17
2023-05-11T19:16:35.699Z,3.08
2023-05-11T19:19:39.262Z,3.90
2023-05-11T19:22:44.298Z,3.20
2023-05-11T19:25:47.971Z,3.17
2023-05-11T19:28:51.849Z,2.90
2023-05-11T19:31:55.436Z,2.45
2023-05-11T19:34:59.098Z,2.95
2023-05-11T19:38:06.036Z,2.75
2023-05-11T19:41:10.420Z,2.40
2023-05-11T19:44:13.977Z,2.65
2023-05-11T19:47:17.762Z,2.65
2023-05-11T19:50:24.265Z,2.53
2023-05-11T19:53:29.867Z,3.20
2023-05-11T19:56:33.976Z,3.17
2023-05-11T19:59:37.687Z,2.92
2023-05-11T20:02:41.513Z,2.50
2023-05-11T20:05:45.491Z,3.13
2023-05-11T20:08:52.400Z,2.55
2023-05-11T20:11:56.106Z,3.00
2023-05-11T20:14:59.922Z,2.60
2023-05-11T20:18:04.120Z,2.83
2023-05-11T20:21:07.932Z,3.07
2023-05-11T20:24:12.995Z,2.88
2023-05-11T20:27:16.774Z,3.03
2023-05-11T20:30:21.226Z,2.90
2023-05-11T20:36:31.638Z,2.90
2023-05-11T20:39:36.619Z,2.80
2023-05-11T20:42:40.352Z,3.03
2023-05-11T20:45:44.329Z,2.63
2023-05-11T20:48:51.524Z,2.80
2023-05-11T20:51:55.700Z,3.60
2023-05-11T20:55:00.772Z,2.92
2023-05-11T20:58:05.056Z,2.88
2023-05-11T21:01:09.004Z,5.47
2023-05-11T21:04:12.646Z,3.70
2023-05-11T21:07:16.267Z,2.72
2023-05-11T21:10:21.353Z,3.78
2023-05-11T21:13:25.055Z,2.93
2023-05-11T21:16:28.826Z,2.92
2023-05-11T21:19:32.480Z,3.28
2023-05-11T21:22:37.618Z,3.10
2023-05-11T21:25:42.719Z,3.00
2023-05-11T21:28:46.245Z,2.78
2023-05-11T21:31:50.480Z,4.65
2023-05-11T21:34:54.063Z,4.50
2023-05-11T21:37:57.785Z,4.47
2023-05-11T21:41:02.838Z,3.25
2023-05-11T21:44:06.828Z,2.97
2023-05-11T21:47:10.388Z,3.03
2023-05-11T21:50:14.120Z,3.15
2023-05-11T21:53:17.711Z,3.33
2023-05-11T21:56:23.392Z,3.20
2023-05-11T21:59:27.532Z,3.13
2023-05-11T22:02:31.322Z,3.55
2023-05-11T22:05:35.106Z,3.22
2023-05-11T22:08:38.811Z,3.60
2023-05-11T22:11:44.383Z,2.85
2023-05-11T22:14:48.030Z,3.00
2023-05-11T22:17:51.569Z,3.13
2023-05-11T22:20:55.185Z,3.22
2023-05-11T22:23:59.155Z,3.40
2023-05-11T22:27:04.405Z,3.47
2023-05-11T22:30:10.503Z,3.60
2023-05-11T22:33:14.304Z,3.33
2023-05-11T22:36:17.694Z,3.00
2023-05-11T22:39:21.335Z,3.40
2023-05-11T22:42:26.364Z,3.30
2023-05-11T22:45:30.138Z,3.30
2023-05-11T22:48:33.551Z,3.33
2023-05-11T22:51:37.248Z,3.38
2023-05-11T22:54:40.583Z,3.30
2023-05-11T22:57:45.687Z,3.50
2023-05-11T23:00:54.528Z,3.65
2023-05-11T23:03:58.397Z,3.75
2023-05-11T23:07:01.976Z,3.25
2023-05-11T23:10:06.380Z,3.45
2023-05-11T23:13:12.911Z,3.42
2023-05-11T23:16:17.737Z,3.13
2023-05-11T23:19:21.243Z,3.83
2023-05-11T23:22:25.101Z,3.50
2023-05-11T23:25:29.174Z,3.30
2023-05-11T23:28:35.094Z,3.47
2023-05-11T23:31:38.932Z,3.40
2023-05-11T23:34:43.032Z,3.58
2023-05-11T23:37:46.764Z,3.88
2023-05-11T23:40:50.718Z,3.42
2023-05-11T23:43:55.831Z,3.88
2023-05-11T23:46:59.589Z,2.97
2023-05-11T23:50:03.402Z,3.33
2023-05-11T23:53:07.038Z,3.35
2023-05-11T23:56:10.622Z,3.30
2023-05-11T23:59:15.700Z,3.65
